Curtis Field Brady US
ICAO: KBBD
IATA: BBD
Category: Medium
Scheduled Services: No

Elevation: 1827 ft
TransAlt. 18000 ft.

Airport Communications:
AWOS 3:118.375
HOUSTON CNTR:132.35
CTAF/UNICOM:122.8

KBBD Zoom In..

If Map Doesn't Load, Click Here

Runways:

(A) RW 08 length 3520 ft width 110 ft
---- / hdg 86

(B) RW 17 length 4605 ft width 75 ft
---- / hdg 173

(C) RW 26 length 3520 ft width 110 ft
---- / hdg 266

(D) RW 35 length 4605 ft width 75 ft
---- / hdg 353

Location; KBBD
Day. 23 / Time. 08.15 Zulu
* Altimeter: 29.99
* Temperature: 18° c. 64.4°f.
* Wind from: 330° Speed 05 kn.
Dewpoint: 17° c.
Visibility: 1 m.
Clouds: Overcast 300 ft.
Conditions: Mist.

KBBD 230815Z AUTO 33005KT 1 1/2SM BR OVC003 18/17 A2999 RMK AO2


Wind From 330°
Speed 05 kn.

 
 
jpsmedia.com for Web Design worldairports.se 2018   terms of use